sensor_id;sensor_type;location;lat;lon;timestamp;P1;durP1;ratioP1;P2;durP2;ratioP2
34872;SDS011;21084;51.098;14.506;2023-05-02T00:00:05;16.75;;;9.25;;
34872;SDS011;21084;51.098;14.506;2023-05-02T00:05:03;15.70;;;9.20;;
34872;SDS011;21084;51.098;14.506;2023-05-02T00:07:33;17.10;;;8.82;;
34872;SDS011;21084;51.098;14.506;2023-05-02T00:10:04;16.48;;;9.35;;
34872;SDS011;21084;51.098;14.506;2023-05-02T00:12:33;14.73;;;8.75;;
34872;SDS011;21084;51.098;14.506;2023-05-02T00:15:02;15.77;;;8.57;;
34872;SDS011;21084;51.098;14.506;2023-05-02T00:17:31;19.65;;;8.55;;
34872;SDS011;21084;51.098;14.506;2023-05-02T00:20:00;16.33;;;9.40;;
34872;SDS011;21084;51.098;14.506;2023-05-02T00:22:30;14.05;;;8.77;;
34872;SDS011;21084;51.098;14.506;2023-05-02T00:24:58;14.52;;;9.13;;
34872;SDS011;21084;51.098;14.506;2023-05-02T00:27:29;14.82;;;8.40;;
34872;SDS011;21084;51.098;14.506;2023-05-02T00:29:59;14.93;;;9.02;;
34872;SDS011;21084;51.098;14.506;2023-05-02T00:32:28;14.70;;;8.77;;
34872;SDS011;21084;51.098;14.506;2023-05-02T00:34:56;17.92;;;9.00;;
34872;SDS011;21084;51.098;14.506;2023-05-02T00:37:25;17.40;;;8.57;;
34872;SDS011;21084;51.098;14.506;2023-05-02T00:39:54;17.92;;;8.88;;
34872;SDS011;21084;51.098;14.506;2023-05-02T00:42:23;14.67;;;9.40;;
34872;SDS011;21084;51.098;14.506;2023-05-02T00:44:54;15.43;;;9.40;;
34872;SDS011;21084;51.098;14.506;2023-05-02T00:47:23;16.17;;;10.57;;
34872;SDS011;21084;51.098;14.506;2023-05-02T00:49:51;15.90;;;10.10;;
34872;SDS011;21084;51.098;14.506;2023-05-02T00:52:20;15.50;;;9.75;;
34872;SDS011;21084;51.098;14.506;2023-05-02T00:54:49;16.77;;;9.67;;
34872;SDS011;21084;51.098;14.506;2023-05-02T00:57:18;21.58;;;10.52;;
34872;SDS011;21084;51.098;14.506;2023-05-02T00:59:47;17.98;;;10.25;;
34872;SDS011;21084;51.098;14.506;2023-05-02T01:02:29;14.67;;;10.53;;
34872;SDS011;21084;51.098;14.506;2023-05-02T01:05:09;19.55;;;10.90;;
34872;SDS011;21084;51.098;14.506;2023-05-02T01:07:46;17.70;;;10.90;;
34872;SDS011;21084;51.098;14.506;2023-05-02T01:10:27;30.92;;;12.52;;
34872;SDS011;21084;51.098;14.506;2023-05-02T01:13:05;19.83;;;11.32;;
34872;SDS011;21084;51.098;14.506;2023-05-02T01:15:36;22.73;;;11.43;;
34872;SDS011;21084;51.098;14.506;2023-05-02T01:20:37;20.17;;;11.52;;
34872;SDS011;21084;51.098;14.506;2023-05-02T01:23:10;18.98;;;12.00;;
34872;SDS011;21084;51.098;14.506;2023-05-02T01:25:54;23.13;;;12.00;;
34872;SDS011;21084;51.098;14.506;2023-05-02T01:28:33;22.73;;;11.80;;
34872;SDS011;21084;51.098;14.506;2023-05-02T01:31:11;20.95;;;11.80;;
34872;SDS011;21084;51.098;14.506;2023-05-02T01:33:42;19.80;;;12.70;;
34872;SDS011;21084;51.098;14.506;2023-05-02T01:36:12;29.88;;;12.63;;
34872;SDS011;21084;51.098;14.506;2023-05-02T01:38:42;23.92;;;12.90;;
34872;SDS011;21084;51.098;14.506;2023-05-02T01:41:12;20.75;;;12.95;;
34872;SDS011;21084;51.098;14.506;2023-05-02T01:43:43;18.10;;;11.73;;
34872;SDS011;21084;51.098;14.506;2023-05-02T01:46:12;19.50;;;11.95;;
34872;SDS011;21084;51.098;14.506;2023-05-02T01:48:43;17.90;;;11.90;;
34872;SDS011;21084;51.098;14.506;2023-05-02T01:51:15;21.48;;;12.07;;
34872;SDS011;21084;51.098;14.506;2023-05-02T01:53:46;24.15;;;13.25;;
34872;SDS011;21084;51.098;14.506;2023-05-02T01:56:16;26.05;;;12.75;;
34872;SDS011;21084;51.098;14.506;2023-05-02T01:58:47;18.95;;;12.55;;
34872;SDS011;21084;51.098;14.506;2023-05-02T02:01:17;20.48;;;12.70;;
34872;SDS011;21084;51.098;14.506;2023-05-02T02:03:46;21.75;;;11.90;;
34872;SDS011;21084;51.098;14.506;2023-05-02T02:06:15;22.33;;;12.75;;
34872;SDS011;21084;51.098;14.506;2023-05-02T02:08:46;22.27;;;12.57;;
34872;SDS011;21084;51.098;14.506;2023-05-02T02:11:16;22.50;;;12.93;;
34872;SDS011;21084;51.098;14.506;2023-05-02T02:13:49;21.95;;;12.65;;
34872;SDS011;21084;51.098;14.506;2023-05-02T02:16:28;19.83;;;12.00;;
34872;SDS011;21084;51.098;14.506;2023-05-02T02:18:58;20.67;;;12.13;;
34872;SDS011;21084;51.098;14.506;2023-05-02T02:21:34;21.13;;;11.85;;
34872;SDS011;21084;51.098;14.506;2023-05-02T02:24:04;20.80;;;12.43;;
34872;SDS011;21084;51.098;14.506;2023-05-02T02:29:04;19.93;;;11.53;;
34872;SDS011;21084;51.098;14.506;2023-05-02T02:31:33;18.20;;;12.02;;
34872;SDS011;21084;51.098;14.506;2023-05-02T02:34:04;19.58;;;12.32;;
34872;SDS011;21084;51.098;14.506;2023-05-02T02:36:35;19.77;;;12.13;;
34872;SDS011;21084;51.098;14.506;2023-05-02T02:39:11;19.15;;;12.13;;
34872;SDS011;21084;51.098;14.506;2023-05-02T02:41:49;22.50;;;11.52;;
34872;SDS011;21084;51.098;14.506;2023-05-02T02:44:34;17.35;;;11.80;;
34872;SDS011;21084;51.098;14.506;2023-05-02T02:47:20;22.77;;;12.50;;
34872;SDS011;21084;51.098;14.506;2023-05-02T02:49:59;20.40;;;12.55;;
34872;SDS011;21084;51.098;14.506;2023-05-02T02:52:39;17.67;;;11.30;;
34872;SDS011;21084;51.098;14.506;2023-05-02T02:55:23;21.58;;;12.00;;
34872;SDS011;21084;51.098;14.506;2023-05-02T02:58:03;18.92;;;11.90;;
34872;SDS011;21084;51.098;14.506;2023-05-02T03:00:45;21.27;;;12.15;;
34872;SDS011;21084;51.098;14.506;2023-05-02T03:03:16;16.58;;;11.52;;
34872;SDS011;21084;51.098;14.506;2023-05-02T03:05:47;16.20;;;11.38;;
34872;SDS011;21084;51.098;14.506;2023-05-02T03:08:16;20.23;;;11.98;;
34872;SDS011;21084;51.098;14.506;2023-05-02T03:10:45;18.57;;;11.80;;
34872;SDS011;21084;51.098;14.506;2023-05-02T03:13:15;32.80;;;12.63;;
34872;SDS011;21084;51.098;14.506;2023-05-02T03:15:54;20.83;;;11.98;;
34872;SDS011;21084;51.098;14.506;2023-05-02T03:18:48;25.20;;;12.73;;
34872;SDS011;21084;51.098;14.506;2023-05-02T03:21:17;20.90;;;12.40;;
34872;SDS011;21084;51.098;14.506;2023-05-02T03:23:45;18.38;;;11.68;;
34872;SDS011;21084;51.098;14.506;2023-05-02T03:26:14;20.55;;;12.52;;
34872;SDS011;21084;51.098;14.506;2023-05-02T03:28:43;21.50;;;12.45;;
34872;SDS011;21084;51.098;14.506;2023-05-02T03:31:14;19.73;;;12.30;;
34872;SDS011;21084;51.098;14.506;2023-05-02T03:33:43;18.90;;;12.52;;
34872;SDS011;21084;51.098;14.506;2023-05-02T03:36:12;21.00;;;12.30;;
34872;SDS011;21084;51.098;14.506;2023-05-02T03:38:41;22.17;;;12.27;;
34872;SDS011;21084;51.098;14.506;2023-05-02T03:41:10;19.67;;;12.30;;
34872;SDS011;21084;51.098;14.506;2023-05-02T03:43:39;16.85;;;11.93;;
34872;SDS011;21084;51.098;14.506;2023-05-02T03:46:07;20.50;;;12.38;;
34872;SDS011;21084;51.098;14.506;2023-05-02T03:48:39;27.85;;;12.77;;
34872;SDS011;21084;51.098;14.506;2023-05-02T03:51:07;23.10;;;12.20;;
34872;SDS011;21084;51.098;14.506;2023-05-02T03:53:40;25.73;;;12.88;;
34872;SDS011;21084;51.098;14.506;2023-05-02T03:56:09;21.92;;;12.13;;
34872;SDS011;21084;51.098;14.506;2023-05-02T03:58:38;21.20;;;11.68;;
34872;SDS011;21084;51.098;14.506;2023-05-02T04:01:12;18.50;;;11.98;;
34872;SDS011;21084;51.098;14.506;2023-05-02T04:03:43;19.20;;;12.30;;
34872;SDS011;21084;51.098;14.506;2023-05-02T04:06:14;16.92;;;12.35;;
34872;SDS011;21084;51.098;14.506;2023-05-02T04:08:43;17.63;;;12.13;;
34872;SDS011;21084;51.098;14.506;2023-05-02T04:11:12;18.67;;;12.27;;
34872;SDS011;21084;51.098;14.506;2023-05-02T04:13:41;22.08;;;12.40;;
34872;SDS011;21084;51.098;14.506;2023-05-02T04:16:10;16.85;;;11.00;;
34872;SDS011;21084;51.098;14.506;2023-05-02T04:18:39;18.85;;;11.98;;
34872;SDS011;21084;51.098;14.506;2023-05-02T04:21:10;21.70;;;12.48;;
34872;SDS011;21084;51.098;14.506;2023-05-02T04:23:39;18.52;;;12.02;;
34872;SDS011;21084;51.098;14.506;2023-05-02T04:26:07;21.15;;;12.00;;
34872;SDS011;21084;51.098;14.506;2023-05-02T04:28:36;22.80;;;12.60;;
34872;SDS011;21084;51.098;14.506;2023-05-02T04:31:05;17.52;;;11.73;;
34872;SDS011;21084;51.098;14.506;2023-05-02T04:33:34;21.10;;;12.60;;
34872;SDS011;21084;51.098;14.506;2023-05-02T04:36:06;18.17;;;11.15;;
34872;SDS011;21084;51.098;14.506;2023-05-02T04:38:38;19.10;;;12.02;;
34872;SDS011;21084;51.098;14.506;2023-05-02T04:41:07;21.92;;;11.80;;
34872;SDS011;21084;51.098;14.506;2023-05-02T04:43:35;20.52;;;11.77;;
34872;SDS011;21084;51.098;14.506;2023-05-02T04:46:07;18.65;;;11.82;;
34872;SDS011;21084;51.098;14.506;2023-05-02T04:48:35;17.90;;;11.32;;
34872;SDS011;21084;51.098;14.506;2023-05-02T04:51:07;19.70;;;11.85;;
34872;SDS011;21084;51.098;14.506;2023-05-02T04:53:39;16.27;;;11.25;;
34872;SDS011;21084;51.098;14.506;2023-05-02T04:56:07;16.30;;;10.80;;
34872;SDS011;21084;51.098;14.506;2023-05-02T04:58:37;16.27;;;11.60;;
34872;SDS011;21084;51.098;14.506;2023-05-02T05:01:05;21.98;;;11.32;;
34872;SDS011;21084;51.098;14.506;2023-05-02T05:03:34;19.30;;;11.43;;
34872;SDS011;21084;51.098;14.506;2023-05-02T05:06:04;17.63;;;11.10;;
34872;SDS011;21084;51.098;14.506;2023-05-02T05:08:34;17.52;;;12.68;;
34872;SDS011;21084;51.098;14.506;2023-05-02T05:11:03;19.73;;;12.05;;
34872;SDS011;21084;51.098;14.506;2023-05-02T05:13:32;19.77;;;12.00;;
34872;SDS011;21084;51.098;14.506;2023-05-02T05:16:01;18.77;;;10.95;;
34872;SDS011;21084;51.098;14.506;2023-05-02T05:18:29;19.02;;;11.38;;
34872;SDS011;21084;51.098;14.506;2023-05-02T05:21:06;16.52;;;10.90;;
34872;SDS011;21084;51.098;14.506;2023-05-02T05:23:37;22.77;;;10.90;;
34872;SDS011;21084;51.098;14.506;2023-05-02T05:26:11;17.38;;;11.05;;
34872;SDS011;21084;51.098;14.506;2023-05-02T05:28:41;17.30;;;11.02;;
34872;SDS011;21084;51.098;14.506;2023-05-02T05:31:11;17.20;;;10.60;;
34872;SDS011;21084;51.098;14.506;2023-05-02T05:33:42;18.52;;;11.18;;
34872;SDS011;21084;51.098;14.506;2023-05-02T05:36:13;17.80;;;10.52;;
34872;SDS011;21084;51.098;14.506;2023-05-02T05:38:44;17.13;;;10.43;;
34872;SDS011;21084;51.098;14.506;2023-05-02T05:43:46;16.48;;;10.55;;
34872;SDS011;21084;51.098;14.506;2023-05-02T05:46:15;16.05;;;10.68;;
34872;SDS011;21084;51.098;14.506;2023-05-02T05:48:44;19.98;;;9.82;;
34872;SDS011;21084;51.098;14.506;2023-05-02T05:51:12;16.13;;;10.27;;
34872;SDS011;21084;51.098;14.506;2023-05-02T05:53:41;15.07;;;10.18;;
34872;SDS011;21084;51.098;14.506;2023-05-02T05:56:12;16.92;;;10.52;;
34872;SDS011;21084;51.098;14.506;2023-05-02T06:01:09;14.77;;;9.43;;
34872;SDS011;21084;51.098;14.506;2023-05-02T06:03:39;17.20;;;9.90;;
34872;SDS011;21084;51.098;14.506;2023-05-02T06:06:08;18.23;;;10.55;;
34872;SDS011;21084;51.098;14.506;2023-05-02T06:08:36;17.23;;;10.05;;
34872;SDS011;21084;51.098;14.506;2023-05-02T06:11:08;17.13;;;10.85;;
34872;SDS011;21084;51.098;14.506;2023-05-02T06:13:37;16.40;;;10.05;;
34872;SDS011;21084;51.098;14.506;2023-05-02T06:16:06;17.17;;;10.05;;
34872;SDS011;21084;51.098;14.506;2023-05-02T06:18:35;15.85;;;10.20;;
34872;SDS011;21084;51.098;14.506;2023-05-02T06:21:04;18.08;;;10.35;;
34872;SDS011;21084;51.098;14.506;2023-05-02T06:23:32;14.87;;;9.87;;
34872;SDS011;21084;51.098;14.506;2023-05-02T06:26:02;21.00;;;10.68;;
34872;SDS011;21084;51.098;14.506;2023-05-02T06:28:34;18.10;;;10.20;;
34872;SDS011;21084;51.098;14.506;2023-05-02T06:31:03;13.38;;;9.15;;
34872;SDS011;21084;51.098;14.506;2023-05-02T06:33:33;17.35;;;10.27;;
34872;SDS011;21084;51.098;14.506;2023-05-02T06:36:02;17.45;;;10.95;;
34872;SDS011;21084;51.098;14.506;2023-05-02T06:38:31;17.08;;;10.05;;
34872;SDS011;21084;51.098;14.506;2023-05-02T06:41:00;18.73;;;10.40;;
34872;SDS011;21084;51.098;14.506;2023-05-02T06:43:28;17.00;;;10.55;;
34872;SDS011;21084;51.098;14.506;2023-05-02T06:45:59;15.20;;;9.05;;
34872;SDS011;21084;51.098;14.506;2023-05-02T06:48:28;13.85;;;9.98;;
34872;SDS011;21084;51.098;14.506;2023-05-02T06:50:56;16.73;;;10.52;;
34872;SDS011;21084;51.098;14.506;2023-05-02T06:53:25;20.20;;;9.75;;
34872;SDS011;21084;51.098;14.506;2023-05-02T06:55:53;16.85;;;9.45;;
34872;SDS011;21084;51.098;14.506;2023-05-02T06:58:22;16.92;;;9.25;;
34872;SDS011;21084;51.098;14.506;2023-05-02T07:00:51;15.25;;;9.00;;
34872;SDS011;21084;51.098;14.506;2023-05-02T07:03:23;15.10;;;8.98;;
34872;SDS011;21084;51.098;14.506;2023-05-02T07:08:21;16.17;;;9.35;;
34872;SDS011;21084;51.098;14.506;2023-05-02T07:10:50;13.73;;;8.48;;
34872;SDS011;21084;51.098;14.506;2023-05-02T07:13:18;14.15;;;8.50;;
34872;SDS011;21084;51.098;14.506;2023-05-02T07:15:47;13.13;;;9.32;;
34872;SDS011;21084;51.098;14.506;2023-05-02T07:18:16;14.33;;;9.20;;
34872;SDS011;21084;51.098;14.506;2023-05-02T07:20:47;15.07;;;8.88;;
34872;SDS011;21084;51.098;14.506;2023-05-02T07:23:16;14.85;;;8.95;;
34872;SDS011;21084;51.098;14.506;2023-05-02T07:25:44;19.15;;;9.60;;
34872;SDS011;21084;51.098;14.506;2023-05-02T07:30:43;12.85;;;8.73;;
34872;SDS011;21084;51.098;14.506;2023-05-02T07:33:13;15.80;;;8.63;;
34872;SDS011;21084;51.098;14.506;2023-05-02T07:35:42;11.88;;;8.75;;
34872;SDS011;21084;51.098;14.506;2023-05-02T07:38:12;16.23;;;7.50;;
34872;SDS011;21084;51.098;14.506;2023-05-02T07:40:41;16.20;;;8.13;;
34872;SDS011;21084;51.098;14.506;2023-05-02T07:43:10;13.15;;;6.55;;
34872;SDS011;21084;51.098;14.506;2023-05-02T07:45:39;10.70;;;7.43;;
34872;SDS011;21084;51.098;14.506;2023-05-02T07:48:08;15.05;;;7.20;;
34872;SDS011;21084;51.098;14.506;2023-05-02T07:50:36;12.45;;;6.93;;
34872;SDS011;21084;51.098;14.506;2023-05-02T07:53:05;13.38;;;7.10;;
34872;SDS011;21084;51.098;14.506;2023-05-02T07:55:35;15.95;;;6.20;;
34872;SDS011;21084;51.098;14.506;2023-05-02T07:58:04;10.15;;;6.70;;
34872;SDS011;21084;51.098;14.506;2023-05-02T08:00:33;12.77;;;6.75;;
34872;SDS011;21084;51.098;14.506;2023-05-02T08:03:01;13.10;;;7.35;;
34872;SDS011;21084;51.098;14.506;2023-05-02T08:05:30;13.52;;;8.10;;
34872;SDS011;21084;51.098;14.506;2023-05-02T08:07:59;10.95;;;7.25;;
34872;SDS011;21084;51.098;14.506;2023-05-02T08:10:28;16.48;;;7.57;;
34872;SDS011;21084;51.098;14.506;2023-05-02T08:12:58;14.82;;;7.45;;
34872;SDS011;21084;51.098;14.506;2023-05-02T08:15:27;14.88;;;7.85;;
34872;SDS011;21084;51.098;14.506;2023-05-02T08:17:56;19.77;;;8.35;;
34872;SDS011;21084;51.098;14.506;2023-05-02T08:20:25;11.48;;;7.60;;
34872;SDS011;21084;51.098;14.506;2023-05-02T08:22:54;13.27;;;7.85;;
34872;SDS011;21084;51.098;14.506;2023-05-02T08:25:25;12.90;;;8.30;;
34872;SDS011;21084;51.098;14.506;2023-05-02T08:30:25;13.50;;;7.50;;
34872;SDS011;21084;51.098;14.506;2023-05-02T08:32:54;15.70;;;7.80;;
34872;SDS011;21084;51.098;14.506;2023-05-02T08:35:22;9.75;;;6.53;;
34872;SDS011;21084;51.098;14.506;2023-05-02T08:37:51;9.95;;;5.60;;
34872;SDS011;21084;51.098;14.506;2023-05-02T08:40:19;9.48;;;5.25;;
34872;SDS011;21084;51.098;14.506;2023-05-02T08:43:06;11.25;;;6.47;;
34872;SDS011;21084;51.098;14.506;2023-05-02T08:45:38;9.45;;;5.75;;
34872;SDS011;21084;51.098;14.506;2023-05-02T08:48:08;11.23;;;6.40;;
34872;SDS011;21084;51.098;14.506;2023-05-02T08:50:38;12.38;;;6.95;;
34872;SDS011;21084;51.098;14.506;2023-05-02T08:53:08;13.30;;;8.45;;
34872;SDS011;21084;51.098;14.506;2023-05-02T08:55:38;11.63;;;6.95;;
34872;SDS011;21084;51.098;14.506;2023-05-02T08:58:08;16.08;;;7.93;;
34872;SDS011;21084;51.098;14.506;2023-05-02T09:00:42;15.40;;;8.23;;
34872;SDS011;21084;51.098;14.506;2023-05-02T09:03:20;13.95;;;8.23;;
34872;SDS011;21084;51.098;14.506;2023-05-02T09:06:00;15.43;;;7.63;;
34872;SDS011;21084;51.098;14.506;2023-05-02T09:08:33;11.40;;;6.72;;
34872;SDS011;21084;51.098;14.506;2023-05-02T09:11:02;14.50;;;7.53;;
34872;SDS011;21084;51.098;14.506;2023-05-02T09:13:33;10.52;;;7.57;;
34872;SDS011;21084;51.098;14.506;2023-05-02T09:16:05;10.65;;;6.43;;
34872;SDS011;21084;51.098;14.506;2023-05-02T09:18:38;11.23;;;7.53;;
34872;SDS011;21084;51.098;14.506;2023-05-02T09:21:08;12.35;;;7.32;;
34872;SDS011;21084;51.098;14.506;2023-05-02T09:23:39;15.63;;;8.38;;
34872;SDS011;21084;51.098;14.506;2023-05-02T09:26:12;18.70;;;9.65;;
34872;SDS011;21084;51.098;14.506;2023-05-02T09:28:42;15.25;;;8.98;;
34872;SDS011;21084;51.098;14.506;2023-05-02T09:31:13;12.00;;;7.22;;
34872;SDS011;21084;51.098;14.506;2023-05-02T09:33:57;13.85;;;6.57;;
34872;SDS011;21084;51.098;14.506;2023-05-02T09:36:37;12.10;;;7.55;;
34872;SDS011;21084;51.098;14.506;2023-05-02T09:39:08;9.88;;;6.68;;
34872;SDS011;21084;51.098;14.506;2023-05-02T09:41:39;14.63;;;6.35;;
34872;SDS011;21084;51.098;14.506;2023-05-02T09:44:08;8.63;;;6.18;;
34872;SDS011;21084;51.098;14.506;2023-05-02T09:49:08;8.90;;;6.20;;
34872;SDS011;21084;51.098;14.506;2023-05-02T09:51:37;12.07;;;6.00;;
34872;SDS011;21084;51.098;14.506;2023-05-02T09:54:09;7.80;;;5.55;;
34872;SDS011;21084;51.098;14.506;2023-05-02T09:56:51;10.38;;;6.40;;
34872;SDS011;21084;51.098;14.506;2023-05-02T09:59:24;10.07;;;6.60;;
34872;SDS011;21084;51.098;14.506;2023-05-02T10:01:58;8.43;;;6.03;;
34872;SDS011;21084;51.098;14.506;2023-05-02T10:04:29;9.75;;;5.97;;
34872;SDS011;21084;51.098;14.506;2023-05-02T10:06:59;12.00;;;6.55;;
34872;SDS011;21084;51.098;14.506;2023-05-02T10:09:29;9.70;;;6.43;;
34872;SDS011;21084;51.098;14.506;2023-05-02T10:14:30;10.18;;;6.75;;
34872;SDS011;21084;51.098;14.506;2023-05-02T10:17:10;11.23;;;7.38;;
34872;SDS011;21084;51.098;14.506;2023-05-02T10:19:44;11.55;;;7.63;;
34872;SDS011;21084;51.098;14.506;2023-05-02T10:22:19;14.48;;;7.28;;
34872;SDS011;21084;51.098;14.506;2023-05-02T10:24:49;12.40;;;7.00;;
34872;SDS011;21084;51.098;14.506;2023-05-02T10:27:19;13.25;;;7.75;;
34872;SDS011;21084;51.098;14.506;2023-05-02T10:29:48;13.93;;;6.72;;
34872;SDS011;21084;51.098;14.506;2023-05-02T10:32:20;12.73;;;7.82;;
34872;SDS011;21084;51.098;14.506;2023-05-02T10:34:50;13.23;;;8.38;;
34872;SDS011;21084;51.098;14.506;2023-05-02T10:37:21;11.98;;;7.72;;
34872;SDS011;21084;51.098;14.506;2023-05-02T10:39:50;12.30;;;8.63;;
34872;SDS011;21084;51.098;14.506;2023-05-02T10:42:19;13.45;;;9.18;;
34872;SDS011;21084;51.098;14.506;2023-05-02T10:44:49;17.40;;;8.68;;
34872;SDS011;21084;51.098;14.506;2023-05-02T10:47:18;19.67;;;9.50;;
34872;SDS011;21084;51.098;14.506;2023-05-02T10:49:49;12.43;;;7.85;;
34872;SDS011;21084;51.098;14.506;2023-05-02T10:52:25;13.65;;;7.57;;
34872;SDS011;21084;51.098;14.506;2023-05-02T10:55:15;12.95;;;8.25;;
34872;SDS011;21084;51.098;14.506;2023-05-02T11:00:48;19.60;;;9.82;;
34872;SDS011;21084;51.098;14.506;2023-05-02T11:06:22;14.57;;;8.45;;
34872;SDS011;21084;51.098;14.506;2023-05-02T11:08:51;16.02;;;9.40;;
34872;SDS011;21084;51.098;14.506;2023-05-02T11:11:38;14.32;;;9.02;;
34872;SDS011;21084;51.098;14.506;2023-05-02T11:14:09;14.48;;;8.60;;
34872;SDS011;21084;51.098;14.506;2023-05-02T11:22:55;17.70;;;9.27;;
34872;SDS011;21084;51.098;14.506;2023-05-02T11:25:29;15.85;;;9.55;;
34872;SDS011;21084;51.098;14.506;2023-05-02T11:28:00;17.00;;;9.20;;
34872;SDS011;21084;51.098;14.506;2023-05-02T11:30:43;11.45;;;8.50;;
34872;SDS011;21084;51.098;14.506;2023-05-02T11:33:15;15.02;;;8.80;;
34872;SDS011;21084;51.098;14.506;2023-05-02T11:35:46;12.50;;;8.55;;
34872;SDS011;21084;51.098;14.506;2023-05-02T11:38:18;14.73;;;9.40;;
34872;SDS011;21084;51.098;14.506;2023-05-02T11:41:12;16.30;;;9.25;;
34872;SDS011;21084;51.098;14.506;2023-05-02T11:43:41;17.25;;;9.90;;
34872;SDS011;21084;51.098;14.506;2023-05-02T11:46:10;16.75;;;10.20;;
34872;SDS011;21084;51.098;14.506;2023-05-02T11:48:39;16.33;;;10.20;;
34872;SDS011;21084;51.098;14.506;2023-05-02T11:51:08;16.33;;;9.57;;
34872;SDS011;21084;51.098;14.506;2023-05-02T11:53:39;17.27;;;10.98;;
34872;SDS011;21084;51.098;14.506;2023-05-02T11:56:09;16.13;;;10.77;;
34872;SDS011;21084;51.098;14.506;2023-05-02T11:58:38;16.73;;;11.25;;
34872;SDS011;21084;51.098;14.506;2023-05-02T12:01:10;16.40;;;10.48;;
34872;SDS011;21084;51.098;14.506;2023-05-02T12:03:41;15.00;;;10.75;;
34872;SDS011;21084;51.098;14.506;2023-05-02T12:06:11;16.08;;;9.65;;
34872;SDS011;21084;51.098;14.506;2023-05-02T12:08:43;18.77;;;10.23;;
34872;SDS011;21084;51.098;14.506;2023-05-02T12:11:12;13.23;;;9.40;;
34872;SDS011;21084;51.098;14.506;2023-05-02T12:13:43;14.05;;;9.80;;
34872;SDS011;21084;51.098;14.506;2023-05-02T12:16:14;14.45;;;8.93;;
34872;SDS011;21084;51.098;14.506;2023-05-02T12:18:43;16.80;;;9.20;;
34872;SDS011;21084;51.098;14.506;2023-05-02T12:21:13;14.27;;;8.52;;
34872;SDS011;21084;51.098;14.506;2023-05-02T12:23:44;14.07;;;8.98;;
34872;SDS011;21084;51.098;14.506;2023-05-02T12:26:16;11.70;;;7.25;;
34872;SDS011;21084;51.098;14.506;2023-05-02T12:28:49;13.73;;;8.25;;
34872;SDS011;21084;51.098;14.506;2023-05-02T12:31:18;14.00;;;7.97;;
34872;SDS011;21084;51.098;14.506;2023-05-02T12:33:47;16.38;;;8.45;;
34872;SDS011;21084;51.098;14.506;2023-05-02T12:38:49;12.15;;;7.85;;
34872;SDS011;21084;51.098;14.506;2023-05-02T12:44:11;13.15;;;7.72;;
34872;SDS011;21084;51.098;14.506;2023-05-02T12:49:26;9.05;;;6.20;;
34872;SDS011;21084;51.098;14.506;2023-05-02T12:51:55;8.77;;;6.40;;
34872;SDS011;21084;51.098;14.506;2023-05-02T12:54:26;8.90;;;6.25;;
34872;SDS011;21084;51.098;14.506;2023-05-02T12:56:54;11.32;;;6.88;;
34872;SDS011;21084;51.098;14.506;2023-05-02T12:59:25;14.10;;;6.87;;
34872;SDS011;21084;51.098;14.506;2023-05-02T13:01:54;9.80;;;7.30;;
34872;SDS011;21084;51.098;14.506;2023-05-02T13:04:32;21.38;;;8.90;;
34872;SDS011;21084;51.098;14.506;2023-05-02T13:07:01;12.43;;;7.70;;
34872;SDS011;21084;51.098;14.506;2023-05-02T13:09:32;11.70;;;8.55;;
34872;SDS011;21084;51.098;14.506;2023-05-02T13:12:01;12.20;;;8.23;;
34872;SDS011;21084;51.098;14.506;2023-05-02T13:14:30;15.00;;;9.30;;
34872;SDS011;21084;51.098;14.506;2023-05-02T13:16:59;12.97;;;9.93;;
34872;SDS011;21084;51.098;14.506;2023-05-02T13:19:28;18.10;;;11.68;;
34872;SDS011;21084;51.098;14.506;2023-05-02T13:21:57;17.95;;;11.75;;
34872;SDS011;21084;51.098;14.506;2023-05-02T13:24:25;18.00;;;11.20;;
34872;SDS011;21084;51.098;14.506;2023-05-02T13:26:56;15.68;;;11.90;;
34872;SDS011;21084;51.098;14.506;2023-05-02T13:29:24;15.18;;;11.38;;
34872;SDS011;21084;51.098;14.506;2023-05-02T13:31:53;18.58;;;11.98;;
34872;SDS011;21084;51.098;14.506;2023-05-02T13:34:21;19.65;;;12.05;;
34872;SDS011;21084;51.098;14.506;2023-05-02T13:36:50;13.60;;;10.55;;
34872;SDS011;21084;51.098;14.506;2023-05-02T13:39:19;14.00;;;9.93;;
34872;SDS011;21084;51.098;14.506;2023-05-02T13:41:47;16.15;;;10.05;;
34872;SDS011;21084;51.098;14.506;2023-05-02T13:44:17;19.00;;;11.45;;
34872;SDS011;21084;51.098;14.506;2023-05-02T13:46:46;15.48;;;10.70;;
34872;SDS011;21084;51.098;14.506;2023-05-02T13:49:15;14.73;;;10.53;;
34872;SDS011;21084;51.098;14.506;2023-05-02T13:51:44;17.75;;;10.88;;
34872;SDS011;21084;51.098;14.506;2023-05-02T13:54:14;30.10;;;16.25;;
34872;SDS011;21084;51.098;14.506;2023-05-02T13:56:42;16.23;;;11.82;;
34872;SDS011;21084;51.098;14.506;2023-05-02T13:59:11;18.98;;;12.10;;
34872;SDS011;21084;51.098;14.506;2023-05-02T14:01:41;19.27;;;12.83;;
34872;SDS011;21084;51.098;14.506;2023-05-02T14:04:11;19.33;;;11.40;;
34872;SDS011;21084;51.098;14.506;2023-05-02T14:06:39;16.25;;;11.00;;
34872;SDS011;21084;51.098;14.506;2023-05-02T14:09:08;16.33;;;11.40;;
34872;SDS011;21084;51.098;14.506;2023-05-02T14:11:37;16.13;;;10.73;;
34872;SDS011;21084;51.098;14.506;2023-05-02T14:14:05;17.20;;;11.20;;
34872;SDS011;21084;51.098;14.506;2023-05-02T14:16:34;18.40;;;10.88;;
34872;SDS011;21084;51.098;14.506;2023-05-02T14:19:04;17.80;;;11.40;;
34872;SDS011;21084;51.098;14.506;2023-05-02T14:21:33;14.65;;;10.43;;
34872;SDS011;21084;51.098;14.506;2023-05-02T14:24:03;18.05;;;9.95;;
34872;SDS011;21084;51.098;14.506;2023-05-02T14:26:32;16.48;;;11.05;;
34872;SDS011;21084;51.098;14.506;2023-05-02T14:29:01;15.80;;;10.18;;
34872;SDS011;21084;51.098;14.506;2023-05-02T14:31:30;15.02;;;10.18;;
34872;SDS011;21084;51.098;14.506;2023-05-02T14:33:58;14.57;;;9.57;;
34872;SDS011;21084;51.098;14.506;2023-05-02T14:36:29;13.20;;;8.63;;
34872;SDS011;21084;51.098;14.506;2023-05-02T14:38:58;12.23;;;8.80;;
34872;SDS011;21084;51.098;14.506;2023-05-02T14:41:26;14.05;;;8.57;;
34872;SDS011;21084;51.098;14.506;2023-05-02T14:43:55;11.75;;;8.77;;
34872;SDS011;21084;51.098;14.506;2023-05-02T14:46:47;12.70;;;8.88;;
34872;SDS011;21084;51.098;14.506;2023-05-02T14:49:17;15.25;;;9.45;;
34872;SDS011;21084;51.098;14.506;2023-05-02T14:51:47;16.13;;;10.00;;
34872;SDS011;21084;51.098;14.506;2023-05-02T14:54:15;15.20;;;9.52;;
34872;SDS011;21084;51.098;14.506;2023-05-02T14:56:45;17.45;;;10.75;;
34872;SDS011;21084;51.098;14.506;2023-05-02T14:59:14;14.85;;;9.85;;
34872;SDS011;21084;51.098;14.506;2023-05-02T15:01:43;15.80;;;9.32;;
34872;SDS011;21084;51.098;14.506;2023-05-02T15:04:12;13.50;;;9.83;;
34872;SDS011;21084;51.098;14.506;2023-05-02T15:06:41;13.43;;;8.47;;
34872;SDS011;21084;51.098;14.506;2023-05-02T15:09:11;10.57;;;7.28;;
34872;SDS011;21084;51.098;14.506;2023-05-02T15:11:39;10.07;;;7.55;;
34872;SDS011;21084;51.098;14.506;2023-05-02T15:14:08;14.00;;;6.35;;
34872;SDS011;21084;51.098;14.506;2023-05-02T15:16:37;12.20;;;7.20;;
34872;SDS011;21084;51.098;14.506;2023-05-02T15:19:05;9.88;;;6.65;;
34872;SDS011;21084;51.098;14.506;2023-05-02T15:21:34;11.88;;;6.35;;